createdAt,value
2023-01-20T00:01:01.571Z,62.22
2023-01-20T00:06:24.020Z,62.71
2023-01-20T00:11:45.636Z,62.42
2023-01-20T00:17:06.559Z,62.96
2023-01-20T00:22:27.243Z,62.76
2023-01-20T00:27:48.059Z,62.91
2023-01-20T00:33:08.771Z,62.81
2023-01-20T00:38:29.597Z,63.00
2023-01-20T00:43:50.413Z,62.96
2023-01-20T00:49:11.736Z,63.04
2023-01-20T00:54:32.593Z,62.98
2023-01-20T00:59:53.242Z,62.74
2023-01-20T01:05:14.621Z,63.11
2023-01-20T01:10:35.376Z,63.13
2023-01-20T01:15:55.980Z,63.43
2023-01-20T01:21:17.348Z,63.54
2023-01-20T01:26:38.156Z,63.38
2023-01-20T01:31:59.011Z,63.01
2023-01-20T01:37:19.720Z,62.97
2023-01-20T01:42:42.704Z,62.61
2023-01-20T01:48:09.980Z,62.60
2023-01-20T01:53:36.880Z,63.01
2023-01-20T01:59:01.427Z,63.50
2023-01-20T02:04:25.598Z,63.82
2023-01-20T02:09:46.705Z,63.51
2023-01-20T02:15:08.466Z,63.62
2023-01-20T02:21:09.537Z,63.52
2023-01-20T02:26:53.777Z,63.26
2023-01-20T02:32:19.080Z,63.33
2023-01-20T02:38:08.019Z,63.85
2023-01-20T02:43:54.327Z,63.37
2023-01-20T02:49:20.980Z,63.69
2023-01-20T02:54:46.501Z,63.28
2023-01-20T03:00:16.660Z,63.90
2023-01-20T03:05:42.978Z,63.31
2023-01-20T03:11:07.493Z,63.21
2023-01-20T03:16:29.122Z,63.39
2023-01-20T03:21:50.102Z,63.23
2023-01-20T03:27:12.080Z,63.22
2023-01-20T03:32:33.234Z,63.52
2023-01-20T03:37:54.239Z,63.72
2023-01-20T03:43:30.428Z,62.94
2023-01-20T03:49:01.467Z,63.14
2023-01-20T03:54:46.404Z,63.29
2023-01-20T04:00:09.883Z,63.56
2023-01-20T04:05:34.100Z,63.35
2023-01-20T04:10:56.898Z,63.24
2023-01-20T04:16:19.160Z,63.96
2023-01-20T04:21:45.102Z,63.31
2023-01-20T04:27:05.939Z,63.48
2023-01-20T04:32:26.575Z,63.54
2023-01-20T04:37:47.622Z,63.32
2023-01-20T04:43:10.149Z,63.35
2023-01-20T04:48:31.046Z,63.75
2023-01-20T04:53:56.048Z,63.53
2023-01-20T04:59:16.994Z,63.57
2023-01-20T05:04:38.164Z,63.21
2023-01-20T05:09:59.011Z,63.20
2023-01-20T05:15:19.660Z,63.44
2023-01-20T05:20:40.375Z,62.49
2023-01-20T05:26:01.093Z,62.83
2023-01-20T05:31:21.775Z,63.41
2023-01-20T05:36:42.454Z,63.12
2023-01-20T05:42:03.306Z,63.10
2023-01-20T05:47:24.375Z,62.97
2023-01-20T05:52:45.078Z,63.41
2023-01-20T05:58:06.714Z,63.24
2023-01-20T06:03:27.582Z,62.94
2023-01-20T06:08:49.650Z,63.57
2023-01-20T06:14:10.497Z,63.26
2023-01-20T06:19:31.080Z,63.35
2023-01-20T06:24:52.411Z,63.22
2023-01-20T06:30:13.438Z,63.66
2023-01-20T06:35:34.191Z,63.83
2023-01-20T06:40:59.246Z,63.52
2023-01-20T06:46:20.099Z,63.73
2023-01-20T06:51:41.919Z,63.45
2023-01-20T06:57:02.813Z,63.54
2023-01-20T07:02:23.808Z,63.85
2023-01-20T07:07:48.292Z,64.00
2023-01-20T07:13:09.282Z,64.57
2023-01-20T07:18:30.137Z,64.68
2023-01-20T07:23:51.197Z,63.46
2023-01-20T07:29:12.213Z,63.77
2023-01-20T07:34:33.058Z,64.40
2023-01-20T07:39:53.867Z,63.96
2023-01-20T07:45:16.276Z,63.92
2023-01-20T07:50:37.874Z,64.26
2023-01-20T07:56:11.075Z,64.37
2023-01-20T08:01:33.054Z,64.31
2023-01-20T08:06:53.789Z,64.46
2023-01-20T08:12:14.515Z,64.23
2023-01-20T08:17:35.201Z,64.25
2023-01-20T08:22:55.786Z,64.68
2023-01-20T08:28:16.609Z,65.33
2023-01-20T08:33:37.616Z,64.90
2023-01-20T08:39:02.582Z,65.02
2023-01-20T08:44:23.622Z,64.63
2023-01-20T08:49:44.384Z,65.27
2023-01-20T08:55:05.504Z,65.05
2023-01-20T09:00:26.393Z,65.21
2023-01-20T09:05:47.479Z,65.70
2023-01-20T09:11:11.269Z,65.41
2023-01-20T09:16:32.080Z,65.71
2023-01-20T09:21:52.666Z,65.17
2023-01-20T09:27:13.330Z,65.44
2023-01-20T09:32:34.258Z,65.16
2023-01-20T09:38:13.476Z,71.02
2023-01-20T09:43:55.123Z,65.31
2023-01-20T09:49:55.706Z,64.88
2023-01-20T09:56:02.996Z,64.50
2023-01-20T10:01:31.001Z,67.35
2023-01-20T10:06:55.329Z,65.63
2023-01-20T10:12:33.034Z,65.30
2023-01-20T10:18:03.765Z,65.23
2023-01-20T10:23:34.688Z,65.64
2023-01-20T10:29:02.231Z,65.20
2023-01-20T10:34:22.975Z,65.84
2023-01-20T10:39:58.569Z,65.49
2023-01-20T10:45:52.877Z,65.08
2023-01-20T10:51:31.975Z,65.26
2023-01-20T10:56:59.034Z,65.35
2023-01-20T11:02:29.403Z,65.18
2023-01-20T11:07:54.006Z,64.91
2023-01-20T11:13:14.533Z,65.26
2023-01-20T11:18:35.246Z,65.51
2023-01-20T11:23:57.075Z,65.32
2023-01-20T11:29:17.509Z,65.26
2023-01-20T11:34:49.150Z,65.21
2023-01-20T11:40:23.048Z,65.28
2023-01-20T11:45:43.680Z,64.88
2023-01-20T11:51:04.653Z,65.21
2023-01-20T11:56:26.515Z,65.74
2023-01-20T12:02:10.823Z,65.15
2023-01-20T12:07:39.736Z,64.96
2023-01-20T12:13:12.897Z,65.60
2023-01-20T12:18:33.828Z,65.26
2023-01-20T12:24:52.878Z,65.29
2023-01-20T12:30:40.189Z,65.93
2023-01-20T12:36:30.029Z,65.96
2023-01-20T12:42:15.378Z,65.41
2023-01-20T12:48:10.452Z,65.46
2023-01-20T12:53:43.584Z,65.43
2023-01-20T12:59:17.643Z,65.93
2023-01-20T13:04:41.463Z,66.33
2023-01-20T13:10:30.364Z,65.80
2023-01-20T13:16:00.791Z,65.73
2023-01-20T13:21:21.468Z,66.13
2023-01-20T13:26:42.920Z,66.44
2023-01-20T13:32:04.999Z,66.79
2023-01-20T13:37:32.705Z,66.38
2023-01-20T13:42:54.347Z,66.61
2023-01-20T13:48:15.134Z,66.05
2023-01-20T13:53:36.003Z,66.64
2023-01-20T13:59:02.961Z,66.36
2023-01-20T14:04:24.194Z,66.50
2023-01-20T14:09:58.795Z,66.50
2023-01-20T14:15:28.541Z,66.41
2023-01-20T14:21:03.811Z,66.14
2023-01-20T14:26:27.988Z,66.41
2023-01-20T14:31:48.797Z,66.85
2023-01-20T14:37:36.434Z,66.97
2023-01-20T14:43:02.954Z,67.06
2023-01-20T14:48:34.354Z,67.15
2023-01-20T14:54:33.943Z,67.25
2023-01-20T15:00:19.555Z,67.41
2023-01-20T15:05:42.781Z,67.92
2023-01-20T15:11:18.905Z,67.59
2023-01-20T15:16:47.509Z,67.18
2023-01-20T15:22:20.870Z,67.78
2023-01-20T15:27:41.769Z,67.32
2023-01-20T15:33:02.619Z,67.83
2023-01-20T15:38:23.482Z,67.92
2023-01-20T15:43:45.594Z,68.34
2023-01-20T15:49:14.832Z,68.35
2023-01-20T15:54:35.817Z,68.60
2023-01-20T15:59:56.540Z,68.15
2023-01-20T16:05:17.922Z,68.73
2023-01-20T16:10:38.613Z,68.25
2023-01-20T16:16:00.741Z,68.11
2023-01-20T16:21:21.702Z,68.33
2023-01-20T16:26:45.517Z,68.79
2023-01-20T16:32:06.305Z,68.47
2023-01-20T16:37:26.918Z,68.29
2023-01-20T16:42:48.235Z,68.75
2023-01-20T16:48:09.345Z,68.99
2023-01-20T16:53:29.972Z,68.42
2023-01-20T16:58:54.175Z,69.05
2023-01-20T17:04:15.007Z,68.66
2023-01-20T17:09:35.972Z,68.82
2023-01-20T17:14:56.557Z,68.95
2023-01-20T17:20:18.706Z,69.09
2023-01-20T17:25:40.157Z,69.24
2023-01-20T17:31:06.367Z,69.12
2023-01-20T17:36:27.197Z,68.76
2023-01-20T17:41:47.966Z,69.01
2023-01-20T17:47:08.719Z,69.52
2023-01-20T17:52:29.351Z,69.53
2023-01-20T17:57:51.579Z,69.18
2023-01-20T18:03:12.411Z,69.42
2023-01-20T18:08:33.369Z,69.51
2023-01-20T18:13:55.977Z,69.57
2023-01-20T18:19:16.669Z,69.71
2023-01-20T18:24:37.525Z,69.80
2023-01-20T18:29:58.265Z,69.90
2023-01-20T18:35:18.998Z,69.83
2023-01-20T18:40:40.639Z,69.63
2023-01-20T18:46:01.388Z,69.87
2023-01-20T18:51:27.791Z,70.04
2023-01-20T18:56:48.593Z,70.13
2023-01-20T19:02:10.909Z,70.14
2023-01-20T19:07:31.925Z,70.05
2023-01-20T19:12:52.794Z,70.08
2023-01-20T19:18:13.949Z,70.21
2023-01-20T19:23:35.175Z,70.05
2023-01-20T19:29:07.506Z,70.38
2023-01-20T19:34:28.484Z,70.05
2023-01-20T19:39:50.344Z,70.64
2023-01-20T19:45:11.267Z,70.42
2023-01-20T19:50:33.100Z,70.22
2023-01-20T19:56:07.341Z,70.43
2023-01-20T20:01:31.980Z,70.39
2023-01-20T20:06:53.023Z,70.20
2023-01-20T20:12:13.777Z,75.38
2023-01-20T20:17:35.621Z,70.69
2023-01-20T20:22:58.587Z,70.38
2023-01-20T20:28:19.604Z,70.09
2023-01-20T20:33:40.588Z,70.05
2023-01-20T20:39:03.215Z,69.89
2023-01-20T20:44:24.481Z,70.02
2023-01-20T20:49:45.162Z,70.27
2023-01-20T20:55:07.149Z,70.12
2023-01-20T21:00:28.341Z,70.35
2023-01-20T21:05:49.563Z,70.48
2023-01-20T21:11:13.801Z,70.03
2023-01-20T21:16:35.293Z,69.99
2023-01-20T21:21:56.076Z,70.34
2023-01-20T21:27:17.840Z,70.27
2023-01-20T21:32:40.966Z,69.90
2023-01-20T21:38:01.548Z,69.88
2023-01-20T21:43:40.941Z,69.92
2023-01-20T21:49:20.390Z,70.04
2023-01-20T21:54:42.089Z,69.92
2023-01-20T22:00:06.253Z,69.91
2023-01-20T22:05:33.606Z,70.38
2023-01-20T22:10:58.551Z,70.02
2023-01-20T22:16:19.306Z,70.05
2023-01-20T22:21:39.946Z,69.79
2023-01-20T22:27:01.878Z,70.31
2023-01-20T22:32:22.442Z,70.13
2023-01-20T22:37:43.268Z,69.96
2023-01-20T22:43:03.930Z,69.94
2023-01-20T22:48:24.724Z,69.90
2023-01-20T22:53:45.800Z,70.22
2023-01-20T22:59:07.029Z,69.98
2023-01-20T23:04:27.880Z,70.05
2023-01-20T23:09:50.030Z,70.28
2023-01-20T23:15:10.844Z,69.88
2023-01-20T23:20:31.409Z,69.89
2023-01-20T23:26:00.775Z,70.04
2023-01-20T23:31:23.687Z,70.12
2023-01-20T23:36:44.720Z,69.86
2023-01-20T23:42:05.526Z,70.14
2023-01-20T23:47:26.039Z,69.73
2023-01-20T23:52:46.854Z,70.17
2023-01-20T23:58:07.683Z,70.06
